createdAt,value
2022-09-26T00:03:23.443Z,101.14286
2022-09-26T00:08:24.367Z,101.54476
2022-09-26T00:13:25.401Z,101.94872
2022-09-26T00:18:26.271Z,101.54476
2022-09-26T00:23:27.185Z,101.94872
2022-09-26T00:28:28.098Z,102.76289
2022-09-26T00:33:29.007Z,103.17313
2022-09-26T00:38:30.017Z,102.76289
2022-09-26T00:43:30.958Z,103.17313
2022-09-26T00:48:31.897Z,103.17313
2022-09-26T00:53:32.881Z,103.58549
2022-09-26T00:58:33.809Z,103.58549
2022-09-26T01:03:34.742Z,103.17313
2022-09-26T01:08:35.648Z,103.17313
2022-09-26T01:13:36.732Z,103.17313
2022-09-26T01:18:37.707Z,102.76289
2022-09-26T01:23:38.632Z,103.58549
2022-09-26T01:28:39.899Z,103.17313
2022-09-26T01:33:40.832Z,102.76289
2022-09-26T01:38:41.743Z,102.76289
2022-09-26T01:43:42.662Z,102.76289
2022-09-26T01:48:43.568Z,102.76289
2022-09-26T01:53:44.492Z,102.76289
2022-09-26T01:58:45.475Z,103.58549
2022-09-26T02:03:46.438Z,104.0
2022-09-26T02:08:47.368Z,104.41667
2022-09-26T02:13:48.351Z,103.17313
2022-09-26T02:18:49.249Z,104.0
2022-09-26T02:23:50.193Z,104.0
2022-09-26T02:28:51.090Z,103.17313
2022-09-26T02:33:52.016Z,103.58549
2022-09-26T02:38:53.002Z,103.58549
2022-09-26T02:43:53.938Z,104.0
2022-09-26T02:48:54.873Z,103.17313
2022-09-26T02:53:55.778Z,102.35476
2022-09-26T02:58:56.684Z,102.35476
2022-09-26T03:03:57.637Z,102.35476
2022-09-26T03:08:58.537Z,101.94872
2022-09-26T03:13:59.468Z,101.54476
2022-09-26T03:19:00.538Z,101.54476
2022-09-26T03:24:01.534Z,101.54476
2022-09-26T03:29:02.454Z,102.35476
2022-09-26T03:34:03.411Z,102.35476
2022-09-26T03:39:04.409Z,102.35476
2022-09-26T03:44:05.342Z,103.58549
2022-09-26T03:49:06.263Z,103.17313
2022-09-26T03:54:07.211Z,102.35476
2022-09-26T03:59:08.173Z,102.76289
2022-09-26T04:04:09.130Z,102.76289
2022-09-26T04:09:13.221Z,102.35476
2022-09-26T04:14:17.657Z,101.94872
2022-09-26T04:19:18.599Z,101.94872
2022-09-26T04:24:19.522Z,102.35476
2022-09-26T04:29:20.439Z,101.94872
2022-09-26T04:34:26.292Z,101.14286
2022-09-26T04:39:28.131Z,101.14286
2022-09-26T04:44:29.088Z,101.14286
2022-09-26T04:49:30.013Z,101.14286
2022-09-26T04:54:30.933Z,101.54476
2022-09-26T04:59:31.845Z,101.54476
2022-09-26T05:04:32.785Z,101.54476
2022-09-26T05:09:36.062Z,101.54476
2022-09-26T05:14:37.456Z,101.54476
2022-09-26T05:19:38.388Z,101.54476
2022-09-26T05:24:39.389Z,101.94872
2022-09-26T05:29:40.677Z,101.54476
2022-09-26T05:34:41.647Z,101.54476
2022-09-26T05:44:43.099Z,100.34518
2022-09-26T05:49:44.136Z,99.94937
2022-09-26T05:59:45.694Z,99.94937
2022-09-26T06:04:46.643Z,99.55556
2022-09-26T06:09:47.558Z,98.77387
2022-09-26T06:14:48.495Z,99.16373
2022-09-26T06:19:49.461Z,99.16373
2022-09-26T06:24:50.408Z,98.77387
2022-09-26T06:29:51.399Z,99.94937
2022-09-26T06:34:52.359Z,100.743
2022-09-26T06:39:58.488Z,99.94937
2022-09-26T06:45:00.251Z,99.55556
2022-09-26T06:50:01.306Z,99.94937
2022-09-26T06:55:02.265Z,100.34518
2022-09-26T07:00:03.267Z,99.94937
2022-09-26T07:05:04.187Z,100.743
2022-09-26T07:10:05.142Z,99.94937
2022-09-26T07:15:06.257Z,100.34518
2022-09-26T07:20:07.192Z,99.16373
2022-09-26T07:25:08.094Z,99.16373
2022-09-26T07:30:09.061Z,99.55556
2022-09-26T07:35:09.964Z,98.77387
2022-09-26T07:40:10.958Z,97.61596
2022-09-26T07:45:29.658Z,101.94872
2022-09-26T07:50:31.211Z,102.76289
2022-09-26T07:55:32.163Z,101.54476
2022-09-26T08:00:33.077Z,101.54476
2022-09-26T08:05:33.992Z,101.54476
2022-09-26T08:10:34.920Z,103.58549
2022-09-26T08:15:35.883Z,101.14286
2022-09-26T08:20:36.807Z,102.35476
2022-09-26T08:25:37.742Z,102.76289
2022-09-26T08:30:38.693Z,104.0
2022-09-26T08:35:39.682Z,106.10526
2022-09-26T08:40:40.971Z,105.25654
2022-09-26T08:45:45.321Z,103.17313
2022-09-26T08:50:48.643Z,102.76289
2022-09-26T08:55:49.566Z,101.14286
2022-09-26T09:00:50.474Z,102.35476
2022-09-26T09:05:51.392Z,107.39523
2022-09-26T09:10:52.323Z,105.67979
2022-09-26T09:15:53.305Z,104.83551
2022-09-26T09:20:54.289Z,105.67979
2022-09-26T09:25:55.325Z,107.39523
2022-09-26T09:30:56.316Z,108.26667
2022-09-26T09:35:57.295Z,105.25654
2022-09-26T09:40:58.301Z,108.70588
2022-09-26T09:45:59.294Z,111.3913
2022-09-26T09:51:00.222Z,104.83551
2022-09-26T09:56:01.398Z,104.83551
2022-09-26T10:01:02.520Z,102.76289
2022-09-26T10:06:03.437Z,101.14286
2022-09-26T10:11:04.364Z,104.83551
2022-09-26T10:16:05.421Z,106.10526
2022-09-26T10:21:06.402Z,110.03774
2022-09-26T10:26:07.324Z,104.0
2022-09-26T10:31:08.336Z,100.743
2022-09-26T10:36:09.358Z,100.34518
2022-09-26T10:41:10.305Z,103.17313
2022-09-26T10:46:11.299Z,104.41667
2022-09-26T10:51:12.264Z,105.67979
2022-09-26T10:56:13.186Z,106.10526
2022-09-26T11:01:14.175Z,110.03774
2022-09-26T11:06:15.147Z,110.03774
2022-09-26T11:11:16.078Z,109.5914
2022-09-26T11:16:17.106Z,109.5914
2022-09-26T11:21:28.320Z,110.48649
2022-09-26T11:26:30.032Z,112.76712
2022-09-26T11:42:36.596Z,117.03371
2022-09-26T11:47:37.572Z,113.23077
2022-09-26T11:52:38.538Z,112.76712
2022-09-26T11:57:39.445Z,109.14745
2022-09-26T12:02:40.727Z,106.53298
2022-09-26T12:07:42.117Z,105.25654
2022-09-26T12:12:43.035Z,111.3913
2022-09-26T12:17:43.958Z,114.16575
2022-09-26T12:22:45.298Z,111.3913
2022-09-26T12:27:46.234Z,111.3913
2022-09-26T12:32:47.187Z,115.11111
2022-09-26T12:37:48.086Z,114.63712
2022-09-26T12:42:49.094Z,112.30601
2022-09-26T12:47:50.117Z,114.63712
2022-09-26T12:52:51.078Z,113.69697
2022-09-26T12:57:51.992Z,112.76712
2022-09-26T13:02:53.016Z,111.84741
2022-09-26T13:07:54.019Z,110.48649
2022-09-26T13:12:54.942Z,110.03774
2022-09-26T13:17:55.904Z,108.26667
2022-09-26T13:22:56.845Z,108.26667
2022-09-26T13:27:57.764Z,108.26667
2022-09-26T13:32:58.691Z,110.48649
2022-09-26T13:38:02.993Z,113.69697
2022-09-26T13:43:06.191Z,109.5914
2022-09-26T13:48:07.133Z,109.14745
2022-09-26T13:53:08.105Z,108.26667
2022-09-26T13:58:09.011Z,106.10526
2022-09-26T14:03:10.014Z,106.96296
2022-09-26T14:08:11.144Z,107.39523
2022-09-26T14:13:12.055Z,108.26667
2022-09-26T14:18:13.006Z,108.26667
2022-09-26T14:23:13.939Z,109.14745
2022-09-26T14:28:14.851Z,109.5914
2022-09-26T14:33:15.794Z,113.23077
2022-09-26T14:38:16.791Z,110.93767
2022-09-26T14:43:17.748Z,113.69697
2022-09-26T14:48:18.684Z,114.63712
2022-09-26T14:53:19.727Z,116.06704
2022-09-26T14:58:20.735Z,118.0113
2022-09-26T15:03:21.770Z,115.11111
2022-09-26T15:08:22.866Z,111.3913
2022-09-26T15:13:23.781Z,116.06704
2022-09-26T15:18:24.805Z,113.23077
2022-09-26T15:23:25.863Z,111.3913
2022-09-26T15:28:26.904Z,113.69697
2022-09-26T15:33:27.850Z,115.11111
2022-09-26T15:38:28.839Z,116.06704
2022-09-26T15:43:29.773Z,114.63712
2022-09-26T15:48:30.717Z,114.63712
2022-09-26T15:53:31.835Z,115.58774
2022-09-26T15:58:32.754Z,115.58774
2022-09-26T16:03:33.711Z,113.69697
2022-09-26T16:08:34.617Z,112.30601
2022-09-26T16:13:35.531Z,111.3913
2022-09-26T16:18:36.490Z,110.03774
2022-09-26T16:23:37.386Z,109.5914
2022-09-26T16:28:38.324Z,109.5914
2022-09-26T16:33:39.269Z,109.14745
2022-09-26T16:38:40.260Z,108.26667
2022-09-26T16:43:41.359Z,107.82979
2022-09-26T16:48:42.440Z,107.39523
2022-09-26T16:53:43.362Z,106.96296
2022-09-26T16:58:44.304Z,106.96296
2022-09-26T17:03:45.273Z,106.96296
2022-09-26T17:08:46.481Z,108.70588
2022-09-26T17:13:47.407Z,108.26667
2022-09-26T17:18:48.396Z,110.48649
2022-09-26T17:23:49.480Z,110.03774
2022-09-26T17:28:50.421Z,109.14745
2022-09-26T17:33:51.385Z,109.14745
2022-09-26T17:38:52.394Z,108.70588
2022-09-26T17:43:53.341Z,109.14745
2022-09-26T17:48:54.428Z,109.14745
2022-09-26T17:53:55.360Z,109.14745
2022-09-26T17:58:56.297Z,109.14745
2022-09-26T18:03:57.390Z,109.14745
2022-09-26T18:08:58.437Z,109.14745
2022-09-26T18:13:59.638Z,108.70588
2022-09-26T18:19:06.057Z,108.70588
2022-09-26T18:24:08.371Z,108.70588
2022-09-26T18:29:09.444Z,108.26667
2022-09-26T18:34:10.530Z,108.70588
2022-09-26T18:39:11.602Z,109.5914
2022-09-26T18:44:12.707Z,111.3913
2022-09-26T18:49:13.768Z,111.84741
2022-09-26T18:54:15.043Z,111.84741
2022-09-26T18:59:16.313Z,113.23077
2022-09-26T19:04:17.266Z,113.23077
2022-09-26T19:09:18.341Z,112.76712
2022-09-26T19:14:19.395Z,112.30601
2022-09-26T19:19:20.426Z,111.84741
2022-09-26T19:24:21.421Z,111.84741
2022-09-26T19:29:22.932Z,111.84741
2022-09-26T19:34:24.026Z,112.30601
2022-09-26T19:39:25.193Z,112.76712
2022-09-26T19:44:26.213Z,112.76712
2022-09-26T19:49:27.234Z,113.23077
2022-09-26T19:54:28.294Z,113.69697
2022-09-26T19:59:29.748Z,113.23077
2022-09-26T20:04:30.680Z,112.76712
2022-09-26T20:09:31.696Z,113.69697
2022-09-26T20:14:32.629Z,113.23077
2022-09-26T20:19:33.714Z,113.69697
2022-09-26T20:24:34.706Z,112.76712
2022-09-26T20:29:35.700Z,112.76712
2022-09-26T20:34:36.763Z,112.30601
2022-09-26T20:39:37.851Z,112.30601
2022-09-26T20:44:38.761Z,111.3913
2022-09-26T20:49:39.711Z,110.93767
2022-09-26T20:54:40.837Z,110.93767
2022-09-26T20:59:42.121Z,110.93767
2022-09-26T21:04:43.031Z,110.48649
2022-09-26T21:09:43.934Z,110.48649
2022-09-26T21:14:44.872Z,111.3913
2022-09-26T21:19:45.857Z,111.84741
2022-09-26T21:24:46.785Z,111.84741
2022-09-26T21:29:47.723Z,111.84741
2022-09-26T21:34:48.654Z,111.84741
2022-09-26T21:39:49.566Z,112.30601
2022-09-26T21:44:50.552Z,111.84741
2022-09-26T21:49:51.505Z,111.3913
2022-09-26T21:54:52.524Z,111.3913
2022-09-26T21:59:53.449Z,111.3913
2022-09-26T22:04:54.365Z,111.84741
2022-09-26T22:09:55.261Z,111.84741
2022-09-26T22:14:56.193Z,112.30601
2022-09-26T22:19:57.129Z,110.93767
2022-09-26T22:24:58.039Z,111.3913
2022-09-26T22:29:58.984Z,110.93767
2022-09-26T22:34:59.913Z,110.93767
2022-09-26T22:40:00.795Z,110.93767
2022-09-26T22:45:01.794Z,110.48649
2022-09-26T22:50:02.700Z,110.03774
2022-09-26T22:55:03.600Z,109.14745
2022-09-26T23:00:04.557Z,109.14745
2022-09-26T23:05:05.498Z,108.70588
2022-09-26T23:10:06.467Z,108.26667
2022-09-26T23:15:07.365Z,109.14745
2022-09-26T23:20:08.305Z,109.14745
2022-09-26T23:25:09.254Z,109.14745
2022-09-26T23:30:10.150Z,108.70588
2022-09-26T23:35:11.197Z,108.70588
2022-09-26T23:40:12.305Z,108.70588
2022-09-26T23:45:13.370Z,108.70588
2022-09-26T23:50:14.351Z,108.70588
2022-09-26T23:55:15.297Z,108.70588
